Time,TemperatureF,DewpointF,PressureIn,WindDirection,WindDirectionDegrees,WindSpeedMPH,WindSpeedGustMPH,Humidity,HourlyPrecipIn,Conditions,Clouds,dailyrainin,SoftwareType,DateUTC
2013-08-02 00:00:00,70.3,64.2,29.91,SSW,202,4.0,10.0,81,0.00,,---,0.00,VWS V14.01,2013-08-02 05:00:00,
2013-08-02 00:10:00,70.0,64.0,29.91,SSE,164,1.0,10.0,82,0.00,,,0.00,weatherlink.com 1.10,2013-08-02 05:10:00,
2013-08-02 00:20:00,70.1,64.4,29.90,SSW,202,3.0,11.0,82,0.00,,---,0.00,VWS V14.01,2013-08-02 05:20:00,
2013-08-02 00:25:00,69.9,65.0,29.90,SW,219,4.0,11.0,83,0.00,,,0.00,weatherlink.com 1.10,2013-08-02 05:25:00,
2013-08-02 00:30:00,70.0,64.6,29.90,SSW,202,4.0,11.0,83,0.00,,---,0.00,VWS V14.01,2013-08-02 05:30:00,
2013-08-02 00:40:00,70.1,64.0,29.90,SSW,205,2.0,9.0,82,0.00,,,0.00,weatherlink.com 1.10,2013-08-02 05:40:00,
2013-08-02 00:50:00,70.2,64.4,29.90,SSW,202,3.0,8.0,82,0.00,,---,0.00,VWS V14.01,2013-08-02 05:50:00,
2013-08-02 00:55:00,70.2,64.0,29.90,SSW,196,0.0,7.0,81,0.00,,,0.00,weatherlink.com 1.10,2013-08-02 05:55:00,
2013-08-02 01:00:00,70.2,64.1,29.90,SSW,202,3.0,8.0,81,0.00,,---,0.00,VWS V14.01,2013-08-02 06:00:00,
2013-08-02 01:10:00,70.3,64.0,29.91,SSW,202,3.0,12.0,81,0.00,,,0.00,weatherlink.com 1.10,2013-08-02 06:10:00,
2013-08-02 01:20:00,70.3,63.8,29.90,SSW,202,3.0,11.0,80,0.00,,---,0.00,VWS V14.01,2013-08-02 06:20:00,
2013-08-02 01:25:00,70.5,64.0,29.91,South,174,7.0,12.0,79,0.00,,,0.00,weatherlink.com 1.10,2013-08-02 06:25:00,
2013-08-02 01:30:00,70.4,63.6,29.91,SSW,202,5.0,12.0,79,0.00,,---,0.00,VWS V14.01,2013-08-02 06:30:00,
2013-08-02 01:40:00,70.6,64.0,29.92,SW,216,4.0,9.0,79,0.00,,,0.00,weatherlink.com 1.10,2013-08-02 06:40:00,
2013-08-02 01:50:00,70.5,63.7,29.92,SSW,202,3.0,10.0,79,0.00,,---,0.00,VWS V14.01,2013-08-02 06:50:00,
2013-08-02 01:55:00,70.4,64.0,29.93,South,173,6.0,9.0,80,0.00,,,0.00,weatherlink.com 1.10,2013-08-02 06:55:00,
2013-08-02 02:00:00,70.4,63.9,29.94,SSW,202,4.0,15.0,80,0.00,,---,0.00,VWS V14.01,2013-08-02 07:00:00,
2013-08-02 02:10:00,70.3,64.0,29.93,SW,228,5.0,12.0,80,0.00,,,0.00,weatherlink.com 1.10,2013-08-02 07:10:00,
2013-08-02 02:20:00,70.1,64.0,29.92,SSW,202,4.0,11.0,81,0.00,,---,0.00,VWS V14.01,2013-08-02 07:20:00,
2013-08-02 02:25:00,69.7,64.0,29.92,SW,221,5.0,13.0,82,0.00,,,0.00,weatherlink.com 1.10,2013-08-02 07:25:00,
2013-08-02 02:30:00,69.8,64.1,29.93,SSW,202,6.0,15.0,82,0.00,,---,0.00,VWS V14.01,2013-08-02 07:30:00,
2013-08-02 02:40:00,69.4,64.0,29.93,SW,221,5.0,13.0,84,0.00,,,0.00,weatherlink.com 1.10,2013-08-02 07:40:00,
2013-08-02 02:50:00,69.2,64.5,29.92,SSW,202,5.0,11.0,85,0.00,,---,0.00,VWS V14.01,2013-08-02 07:50:00,
2013-08-02 02:55:00,68.9,65.0,29.92,ESE,113,1.0,14.0,86,0.00,,,0.00,weatherlink.com 1.10,2013-08-02 07:55:00,
2013-08-02 03:00:00,68.9,64.6,29.92,SSW,202,6.0,15.0,86,0.00,,---,0.00,VWS V14.01,2013-08-02 08:00:00,
2013-08-02 03:10:00,68.5,65.0,29.92,South,190,3.0,12.0,87,0.00,,,0.00,weatherlink.com 1.10,2013-08-02 08:10:00,
2013-08-02 03:20:00,68.5,64.8,29.92,SSW,202,3.0,13.0,88,0.00,,---,0.00,VWS V14.01,2013-08-02 08:20:00,
2013-08-02 03:25:00,68.3,65.0,29.91,ESE,111,4.0,8.0,89,0.00,,,0.00,weatherlink.com 1.10,2013-08-02 08:25:00,
2013-08-02 03:30:00,68.3,64.9,29.91,SSW,202,3.0,7.0,89,0.00,,---,0.00,VWS V14.01,2013-08-02 08:30:00,
2013-08-02 03:40:00,68.1,65.0,29.89,SW,214,5.0,11.0,90,0.00,,,0.00,weatherlink.com 1.10,2013-08-02 08:40:00,
2013-08-02 03:50:00,68.0,65.0,29.86,SSW,202,5.0,12.0,90,0.00,,---,0.00,VWS V14.01,2013-08-02 08:50:00,
2013-08-02 03:56:00,67.9,65.0,29.84,SSW,203,6.0,11.0,91,0.00,,,0.00,weatherlink.com 1.10,2013-08-02 08:56:00,
2013-08-02 04:00:00,67.9,65.2,29.84,SSW,202,5.0,11.0,91,0.00,,---,0.00,VWS V14.01,2013-08-02 09:00:00,
2013-08-02 04:10:00,68.3,65.0,29.87,NNW,330,2.0,4.0,90,0.00,,,0.00,weatherlink.com 1.10,2013-08-02 09:10:00,
2013-08-02 04:20:00,68.2,65.5,29.89,North,0,3.0,9.0,91,0.00,,---,0.00,VWS V14.01,2013-08-02 09:20:00,
2013-08-02 04:26:00,68.3,66.0,29.89,NE,47,0.0,9.0,91,0.00,,,0.00,weatherlink.com 1.10,2013-08-02 09:26:00,
2013-08-02 04:30:00,68.3,65.6,29.89,NNE,22,2.0,7.0,91,0.00,,---,0.00,VWS V14.01,2013-08-02 09:30:00,
2013-08-02 04:40:00,68.3,65.0,29.89,SE,132,0.0,4.0,90,0.00,,,0.00,weatherlink.com 1.10,2013-08-02 09:40:00,
2013-08-02 04:50:00,68.5,65.5,29.90,ENE,68,0.0,2.0,90,0.00,,---,0.00,VWS V14.01,2013-08-02 09:50:00,
2013-08-02 04:56:00,68.3,66.0,29.90,NNE,20,0.0,2.0,91,0.00,,,0.00,weatherlink.com 1.10,2013-08-02 09:56:00,
2013-08-02 05:00:00,68.3,65.6,29.90,NNE,22,0.0,2.0,91,0.00,,---,0.00,VWS V14.01,2013-08-02 10:00:00,
2013-08-02 05:10:00,67.9,65.2,29.90,NW,315,0.0,1.0,91,0.00,,---,0.00,VWS V14.01,2013-08-02 10:10:00,
2013-08-02 05:11:00,67.9,65.0,29.90,SSW,198,0.0,1.0,91,0.00,,,0.00,weatherlink.com 1.10,2013-08-02 10:11:00,
2013-08-02 05:20:00,67.8,65.4,29.90,SSW,202,1.0,2.0,92,0.00,,---,0.00,VWS V14.01,2013-08-02 10:20:00,
2013-08-02 05:26:00,67.5,65.0,29.90,SE,131,0.0,1.0,92,0.00,,,0.00,weatherlink.com 1.10,2013-08-02 10:26:00,
2013-08-02 05:30:00,67.5,65.4,29.90,SE,135,0.0,1.0,93,0.00,,---,0.00,VWS V14.01,2013-08-02 10:30:00,
2013-08-02 05:40:00,67.2,65.1,29.89,NE,45,1.0,3.0,93,0.00,,---,0.00,VWS V14.01,2013-08-02 10:40:00,
2013-08-02 05:41:00,67.1,65.0,29.89,NE,48,1.0,3.0,93,0.00,,,0.00,weatherlink.com 1.10,2013-08-02 10:41:00,
2013-08-02 05:50:00,67.0,64.9,29.89,East,90,1.0,3.0,93,0.00,,---,0.00,VWS V14.01,2013-08-02 10:50:00,
2013-08-02 05:56:00,66.9,65.0,29.89,ENE,66,1.0,3.0,93,0.00,,,0.00,weatherlink.com 1.10,2013-08-02 10:56:00,
2013-08-02 06:00:00,66.9,64.8,29.89,ENE,68,1.0,3.0,93,0.00,,---,0.00,VWS V14.01,2013-08-02 11:00:00,
2013-08-02 06:10:00,66.8,64.7,29.90,South,180,0.0,1.0,93,0.00,,---,0.00,VWS V14.01,2013-08-02 11:10:00,
2013-08-02 06:11:00,66.7,65.0,29.90,South,179,0.0,1.0,93,0.00,,,0.00,weatherlink.com 1.10,2013-08-02 11:11:00,
2013-08-02 06:20:00,66.5,64.7,29.90,South,180,1.0,2.0,94,0.00,,---,0.00,VWS V14.01,2013-08-02 11:20:00,
2013-08-02 06:26:00,66.3,65.0,29.91,SSE,157,0.0,2.0,94,0.00,,,0.00,weatherlink.com 1.10,2013-08-02 11:26:00,
2013-08-02 06:30:00,66.3,64.5,29.91,SSE,158,0.0,1.0,94,0.00,,---,0.00,VWS V14.01,2013-08-02 11:30:00,
2013-08-02 06:40:00,66.2,64.4,29.90,SSE,158,1.0,3.0,94,0.00,,---,0.00,VWS V14.01,2013-08-02 11:40:00,
2013-08-02 06:50:00,66.6,64.8,29.90,South,180,1.0,4.0,94,0.00,,---,0.00,VWS V14.01,2013-08-02 11:50:00,
2013-08-02 06:56:00,66.7,65.0,29.90,SSW,200,0.0,2.0,94,0.00,,,0.00,weatherlink.com 1.10,2013-08-02 11:56:00,
2013-08-02 07:00:00,66.7,64.9,29.90,SSW,202,1.0,2.0,94,0.00,,---,0.00,VWS V14.01,2013-08-02 12:00:00,
2013-08-02 07:10:00,66.6,64.8,29.89,SSW,202,1.0,2.0,94,0.00,,---,0.00,VWS V14.01,2013-08-02 12:10:00,
2013-08-02 07:11:00,66.5,65.0,29.89,North,360,2.0,2.0,94,0.00,,,0.00,weatherlink.com 1.10,2013-08-02 12:11:00,
2013-08-02 07:20:00,66.9,64.8,29.89,North,0,1.0,3.0,93,0.00,,---,0.00,VWS V14.01,2013-08-02 12:20:00,
2013-08-02 07:26:00,68.1,66.0,29.89,NNE,15,0.0,3.0,92,0.00,,,0.00,weatherlink.com 1.10,2013-08-02 12:26:00,
2013-08-02 07:30:00,68.1,65.4,29.89,North,0,1.0,3.0,91,0.00,,---,0.00,VWS V14.01,2013-08-02 12:30:00,
2013-08-02 07:40:00,69.4,66.0,29.89,North,0,1.0,3.0,89,0.00,,---,0.00,VWS V14.01,2013-08-02 12:40:00,
2013-08-02 07:41:00,69.9,67.0,29.89,NE,56,2.0,3.0,89,0.00,,,0.00,weatherlink.com 1.10,2013-08-02 12:41:00,
2013-08-02 07:50:00,70.0,66.3,29.89,NE,45,1.0,3.0,88,0.00,,---,0.00,VWS V14.01,2013-08-02 12:50:00,
2013-08-02 07:56:00,70.8,67.0,29.89,NE,53,2.0,3.0,86,0.00,,,0.00,weatherlink.com 1.10,2013-08-02 12:56:00,
2013-08-02 08:00:00,70.7,66.3,29.90,NE,45,2.0,4.0,86,0.00,,---,0.00,VWS V14.01,2013-08-02 13:00:00,
2013-08-02 08:10:00,71.4,66.7,29.90,NE,45,2.0,4.0,85,0.00,,---,0.00,VWS V14.01,2013-08-02 13:10:00,
2013-08-02 08:20:00,72.3,66.5,29.90,NE,45,1.0,3.0,82,0.00,,---,0.00,VWS V14.01,2013-08-02 13:20:00,
2013-08-02 08:26:00,74.0,68.0,29.91,ENE,66,1.0,2.0,80,0.00,,,0.00,weatherlink.com 1.10,2013-08-02 13:26:00,
2013-08-02 08:30:00,73.7,67.2,29.91,ENE,68,1.0,3.0,80,0.00,,---,0.00,VWS V14.01,2013-08-02 13:30:00,
2013-08-02 08:40:00,73.5,67.3,29.91,NE,45,2.0,5.0,81,0.00,,---,0.00,VWS V14.01,2013-08-02 13:40:00,
2013-08-02 08:41:00,73.6,67.0,29.91,East,82,3.0,5.0,81,0.00,,,0.00,weatherlink.com 1.10,2013-08-02 13:41:00,
2013-08-02 08:50:00,73.8,66.9,29.91,NE,45,3.0,6.0,79,0.00,,---,0.00,VWS V14.01,2013-08-02 13:50:00,
2013-08-02 08:56:00,73.8,68.0,29.91,NNE,18,2.0,8.0,81,0.00,,,0.00,weatherlink.com 1.10,2013-08-02 13:56:00,
2013-08-02 09:00:00,73.9,67.0,29.91,NNE,22,3.0,8.0,79,0.00,,---,0.00,VWS V14.01,2013-08-02 14:00:00,
2013-08-02 09:10:00,74.6,67.3,29.91,NE,45,3.0,6.0,78,0.00,,---,0.00,VWS V14.01,2013-08-02 14:10:00,
2013-08-02 09:11:00,75.1,67.0,29.90,NE,49,3.0,6.0,77,0.00,,,0.00,weatherlink.com 1.10,2013-08-02 14:11:00,
2013-08-02 09:20:00,74.9,67.2,29.90,NE,45,3.0,7.0,77,0.00,,---,0.00,VWS V14.01,2013-08-02 14:20:00,
2013-08-02 09:26:00,75.0,67.0,29.91,ESE,110,3.0,7.0,77,0.00,,,0.00,weatherlink.com 1.10,2013-08-02 14:26:00,
2013-08-02 09:30:00,75.0,67.3,29.91,NE,45,4.0,7.0,77,0.00,,---,0.00,VWS V14.01,2013-08-02 14:30:00,
2013-08-02 09:40:00,76.1,66.8,29.91,North,0,3.0,7.0,73,0.00,,---,0.00,VWS V14.01,2013-08-02 14:40:00,
2013-08-02 09:41:00,76.9,68.0,29.91,East,84,2.0,7.0,73,0.00,,,0.00,weatherlink.com 1.10,2013-08-02 14:41:00,
2013-08-02 09:50:00,77.0,66.9,29.91,NE,45,2.0,6.0,71,0.00,,---,0.00,VWS V14.01,2013-08-02 14:50:00,
2013-08-02 09:56:00,77.1,66.0,29.91,NE,47,2.0,6.0,69,0.00,,,0.00,weatherlink.com 1.10,2013-08-02 14:56:00,
2013-08-02 10:00:00,77.0,66.5,29.91,NE,45,3.0,5.0,70,0.00,,---,0.00,VWS V14.01,2013-08-02 15:00:00,
2013-08-02 10:10:00,77.6,66.2,29.92,ENE,68,2.0,5.0,68,0.00,,---,0.00,VWS V14.01,2013-08-02 15:10:00,
2013-08-02 10:11:00,78.1,67.0,29.92,East,96,0.0,5.0,68,0.00,,,0.00,weatherlink.com 1.10,2013-08-02 15:11:00,
2013-08-02 10:20:00,78.0,67.0,29.92,NE,45,2.0,6.0,69,0.00,,---,0.00,VWS V14.01,2013-08-02 15:20:00,
2013-08-02 10:26:00,78.5,67.0,29.92,ENE,70,2.0,5.0,67,0.00,,,0.00,weatherlink.com 1.10,2013-08-02 15:26:00,
2013-08-02 10:30:00,78.3,66.4,29.92,NE,45,2.0,4.0,67,0.00,,---,0.00,VWS V14.01,2013-08-02 15:30:00,
2013-08-02 10:40:00,79.2,66.9,29.93,NE,45,3.0,7.0,66,0.00,,---,0.00,VWS V14.01,2013-08-02 15:40:00,
2013-08-02 10:41:00,78.9,66.0,29.93,NNE,16,3.0,7.0,65,0.00,,,0.00,weatherlink.com 1.10,2013-08-02 15:41:00,
2013-08-02 10:50:00,79.1,67.2,29.93,North,0,2.0,6.0,67,0.00,,---,0.00,VWS V14.01,2013-08-02 15:50:00,
2013-08-02 10:56:00,79.5,66.0,29.93,ENE,68,2.0,5.0,64,0.00,,,0.00,weatherlink.com 1.10,2013-08-02 15:56:00,
2013-08-02 11:00:00,79.4,65.3,29.94,East,90,2.0,4.0,62,0.00,,---,0.00,VWS V14.01,2013-08-02 16:00:00,
2013-08-02 11:10:00,79.9,65.7,29.94,East,90,0.0,4.0,62,0.00,,---,0.00,VWS V14.01,2013-08-02 16:10:00,
2013-08-02 11:11:00,81.0,67.0,29.93,SSE,163,2.0,4.0,62,0.00,,,0.00,weatherlink.com 1.10,2013-08-02 16:11:00,
2013-08-02 11:20:00,80.9,66.2,29.93,ENE,68,1.0,4.0,61,0.00,,---,0.00,VWS V14.01,2013-08-02 16:20:00,
2013-08-02 11:26:00,80.0,66.0,29.93,ENE,70,3.0,5.0,63,0.00,,,0.00,weatherlink.com 1.10,2013-08-02 16:26:00,
2013-08-02 11:30:00,80.0,65.4,29.94,ENE,68,2.0,5.0,61,0.00,,---,0.00,VWS V14.01,2013-08-02 16:30:00,
2013-08-02 11:40:00,79.9,64.8,29.94,ENE,68,2.0,8.0,60,0.00,,---,0.00,VWS V14.01,2013-08-02 16:40:00,
2013-08-02 11:41:00,79.7,65.0,29.93,SW,216,0.0,8.0,61,0.00,,,0.00,weatherlink.com 1.10,2013-08-02 16:41:00,
2013-08-02 11:50:00,79.9,66.2,29.94,ENE,68,1.0,4.0,63,0.00,,---,0.00,VWS V14.01,2013-08-02 16:50:00,
2013-08-02 11:57:00,79.2,67.0,29.93,NE,45,3.0,4.0,66,0.00,,,0.00,weatherlink.com 1.10,2013-08-02 16:57:00,
2013-08-02 12:00:00,79.2,66.4,29.93,NNE,22,2.0,5.0,65,0.00,,---,0.00,VWS V14.01,2013-08-02 17:00:00,
2013-08-02 12:10:00,79.2,65.1,29.93,East,90,1.0,5.0,62,0.00,,---,0.00,VWS V14.01,2013-08-02 17:10:00,
2013-08-02 12:11:00,79.4,66.0,29.93,South,183,0.0,5.0,63,0.00,,,0.00,weatherlink.com 1.10,2013-08-02 17:11:00,
2013-08-02 12:20:00,79.8,67.0,29.93,East,90,1.0,5.0,65,0.00,,---,0.00,VWS V14.01,2013-08-02 17:20:00,
2013-08-02 12:26:00,79.3,67.0,29.94,ENE,72,3.0,6.0,67,0.00,,,0.00,weatherlink.com 1.10,2013-08-02 17:26:00,
2013-08-02 12:30:00,79.5,68.0,29.94,NE,45,3.0,6.0,68,0.00,,---,0.00,VWS V14.01,2013-08-02 17:30:00,
2013-08-02 12:40:00,79.2,67.3,29.94,North,0,2.0,5.0,67,0.00,,---,0.00,VWS V14.01,2013-08-02 17:40:00,
2013-08-02 12:41:00,79.2,68.0,29.94,NE,39,1.0,5.0,68,0.00,,,0.00,weatherlink.com 1.10,2013-08-02 17:41:00,
2013-08-02 12:50:00,79.4,67.5,29.94,NNE,22,1.0,3.0,67,0.00,,---,0.00,VWS V14.01,2013-08-02 17:50:00,
2013-08-02 12:56:00,81.0,67.0,29.94,NE,35,1.0,2.0,62,0.00,,,0.00,weatherlink.com 1.10,2013-08-02 17:56:00,
2013-08-02 13:00:00,80.6,66.8,29.94,ENE,68,1.0,4.0,63,0.00,,---,0.00,VWS V14.01,2013-08-02 18:00:00,
2013-08-02 13:10:00,80.2,66.9,29.94,SSW,202,2.0,5.0,64,0.00,,---,0.00,VWS V14.01,2013-08-02 18:10:00,
2013-08-02 13:11:00,79.8,67.0,29.94,NE,53,1.0,4.0,64,0.00,,,0.00,weatherlink.com 1.10,2013-08-02 18:11:00,
2013-08-02 13:20:00,79.9,66.2,29.94,ENE,68,1.0,4.0,63,0.00,,---,0.00,VWS V14.01,2013-08-02 18:20:00,
2013-08-02 13:26:00,79.4,67.0,29.94,North,353,3.0,4.0,66,0.00,,,0.00,weatherlink.com 1.10,2013-08-02 18:26:00,
2013-08-02 13:30:00,79.6,66.8,29.94,North,0,2.0,4.0,65,0.00,,---,0.00,VWS V14.01,2013-08-02 18:30:00,
2013-08-02 13:40:00,79.0,66.7,29.94,NE,45,1.0,4.0,66,0.00,,---,0.00,VWS V14.01,2013-08-02 18:40:00,
2013-08-02 13:42:00,78.8,67.0,29.94,ENE,57,2.0,3.0,67,0.00,,,0.00,weatherlink.com 1.10,2013-08-02 18:42:00,
2013-08-02 13:50:00,78.9,65.7,29.94,NE,45,1.0,3.0,64,0.00,,---,0.00,VWS V14.01,2013-08-02 18:50:00,
2013-08-02 13:57:00,79.2,66.0,29.93,ENE,60,0.0,2.0,65,0.00,,,0.00,weatherlink.com 1.10,2013-08-02 18:57:00,
2013-08-02 14:00:00,79.1,66.3,29.93,ENE,68,0.0,2.0,65,0.00,,---,0.00,VWS V14.01,2013-08-02 19:00:00,
2013-08-02 14:10:00,80.6,66.4,29.93,North,0,1.0,3.0,62,0.00,,---,0.00,VWS V14.01,2013-08-02 19:10:00,
2013-08-02 14:12:00,81.3,68.0,29.93,North,6,4.0,4.0,64,0.00,,,0.00,weatherlink.com 1.10,2013-08-02 19:12:00,
2013-08-02 14:20:00,81.2,67.9,29.93,NNW,338,2.0,4.0,64,0.00,,---,0.00,VWS V14.01,2013-08-02 19:20:00,
2013-08-02 14:26:00,81.7,66.0,29.92,NE,44,2.0,7.0,60,0.00,,,0.00,weatherlink.com 1.10,2013-08-02 19:26:00,
2013-08-02 14:30:00,81.7,66.5,29.92,NE,45,3.0,7.0,60,0.00,,---,0.00,VWS V14.01,2013-08-02 19:30:00,
2013-08-02 14:40:00,81.5,66.8,29.92,NE,45,2.0,6.0,61,0.00,,---,0.00,VWS V14.01,2013-08-02 19:40:00,
2013-08-02 14:42:00,81.6,67.0,29.92,NE,39,2.0,6.0,62,0.00,,,0.00,weatherlink.com 1.10,2013-08-02 19:42:00,
2013-08-02 14:50:00,81.4,66.7,29.91,NE,45,3.0,6.0,61,0.00,,---,0.00,VWS V14.01,2013-08-02 19:50:00,
2013-08-02 14:57:00,81.6,67.0,29.91,SE,129,1.0,7.0,61,0.00,,,0.00,weatherlink.com 1.10,2013-08-02 19:57:00,
2013-08-02 15:00:00,81.7,67.4,29.91,ESE,112,3.0,7.0,62,0.00,,---,0.00,VWS V14.01,2013-08-02 20:00:00,
2013-08-02 15:10:00,82.5,66.7,29.91,SE,135,3.0,6.0,59,0.00,,---,0.00,VWS V14.01,2013-08-02 20:10:00,
2013-08-02 15:12:00,82.5,68.0,29.91,SSE,148,3.0,6.0,62,0.00,,,0.00,weatherlink.com 1.10,2013-08-02 20:12:00,
2013-08-02 15:20:00,82.7,67.4,29.91,ENE,68,3.0,9.0,60,0.00,,---,0.00,VWS V14.01,2013-08-02 20:20:00,
2013-08-02 15:27:00,81.4,67.0,29.91,ENE,57,4.0,6.0,62,0.00,,,0.00,weatherlink.com 1.10,2013-08-02 20:27:00,
2013-08-02 15:30:00,81.7,66.5,29.92,NE,45,3.0,7.0,60,0.00,,---,0.00,VWS V14.01,2013-08-02 20:30:00,
2013-08-02 15:39:00,82.7,67.4,29.91,ENE,68,3.0,9.0,60,0.00,,---,0.00,VWS V14.01,2013-08-02 20:39:00,
2013-08-02 15:40:00,82.0,66.8,29.91,SSE,159,2.0,5.0,60,0.00,,---,0.00,VWS V14.01,2013-08-02 20:40:00,
2013-08-02 15:44:00,82.4,67.6,29.91,ESE,110,2.0,4.0,61,0.00,,---,0.00,VWS V14.01,2013-08-02 20:44:00,
2013-08-02 15:49:00,82.5,67.2,29.91,NNW,345,2.0,6.0,60,0.00,,---,0.00,VWS V14.01,2013-08-02 20:49:00,
2013-08-02 15:50:00,82.5,67.7,29.91,North,8,4.0,6.0,61,0.00,,---,0.00,VWS V14.01,2013-08-02 20:50:00,
2013-08-02 15:54:00,82.4,67.6,29.91,East,92,2.0,7.0,61,0.00,,---,0.00,VWS V14.01,2013-08-02 20:54:00,
2013-08-02 15:59:00,82.1,67.3,29.91,NE,54,3.0,7.0,61,0.00,,---,0.00,VWS V14.01,2013-08-02 20:59:00,
2013-08-02 16:00:00,82.0,66.8,29.91,North,357,4.0,7.0,60,0.00,,---,0.00,VWS V14.01,2013-08-02 21:00:00,
2013-08-02 16:04:00,81.7,67.9,29.91,North,4,3.0,4.0,63,0.00,,---,0.00,VWS V14.01,2013-08-02 21:04:00,
2013-08-02 16:09:00,82.0,67.7,29.91,North,350,4.0,5.0,62,0.00,,---,0.00,VWS V14.01,2013-08-02 21:09:00,
2013-08-02 16:10:00,82.0,66.8,29.91,NNE,15,6.0,9.0,60,0.00,,---,0.00,VWS V14.01,2013-08-02 21:10:00,
2013-08-02 16:14:00,81.9,67.6,29.91,NNE,30,6.0,7.0,62,0.00,,---,0.00,VWS V14.01,2013-08-02 21:14:00,
2013-08-02 16:19:00,81.8,67.5,29.91,North,4,1.0,7.0,62,0.00,,---,0.00,VWS V14.01,2013-08-02 21:19:00,
2013-08-02 16:20:00,82.0,67.7,29.92,WNW,296,2.0,7.0,62,0.00,,---,0.00,VWS V14.01,2013-08-02 21:20:00,
2013-08-02 16:24:00,82.3,67.0,29.92,NNE,28,4.0,8.0,60,0.00,,---,0.00,VWS V14.01,2013-08-02 21:24:00,
2013-08-02 16:29:00,82.5,67.7,29.92,North,4,6.0,8.0,61,0.00,,---,0.00,VWS V14.01,2013-08-02 21:29:00,
2013-08-02 16:30:00,82.4,66.7,29.92,NNE,13,6.0,8.0,59,0.00,,---,0.00,VWS V14.01,2013-08-02 21:30:00,
2013-08-02 16:34:00,82.0,66.8,29.92,North,354,5.0,6.0,60,0.00,,---,0.00,VWS V14.01,2013-08-02 21:34:00,
2013-08-02 16:39:00,81.7,66.5,29.92,NNE,15,6.0,6.0,60,0.00,,---,0.00,VWS V14.01,2013-08-02 21:39:00,
2013-08-02 16:40:00,81.7,66.9,29.92,North,4,3.0,7.0,61,0.00,,---,0.00,VWS V14.01,2013-08-02 21:40:00,
2013-08-02 16:43:00,82.1,67.3,29.92,NW,322,4.0,9.0,61,0.00,,---,0.00,VWS V14.01,2013-08-02 21:43:00,
2013-08-02 16:49:00,82.9,68.6,29.92,North,356,4.0,9.0,62,0.00,,---,0.00,VWS V14.01,2013-08-02 21:49:00,
2013-08-02 16:50:00,83.2,68.8,29.92,NNW,336,2.0,9.0,62,0.00,,---,0.00,VWS V14.01,2013-08-02 21:50:00,
2013-08-02 16:54:00,83.3,68.0,29.92,NE,53,2.0,5.0,60,0.00,,---,0.00,VWS V14.01,2013-08-02 21:54:00,
2013-08-02 16:59:00,83.2,66.9,29.93,North,350,3.0,6.0,58,0.00,,---,0.00,VWS V14.01,2013-08-02 21:59:00,
2013-08-02 17:00:00,83.1,67.3,29.92,North,359,3.0,6.0,59,0.00,,---,0.00,VWS V14.01,2013-08-02 22:00:00,
2013-08-02 17:03:00,82.8,67.0,29.93,North,358,2.0,6.0,59,0.00,,---,0.00,VWS V14.01,2013-08-02 22:03:00,
2013-08-02 17:09:00,82.7,66.9,29.93,North,351,1.0,6.0,59,0.00,,---,0.00,VWS V14.01,2013-08-02 22:09:00,
2013-08-02 17:10:00,83.0,67.2,29.93,East,82,2.0,6.0,59,0.00,,---,0.00,VWS V14.01,2013-08-02 22:10:00,
2013-08-02 17:14:00,83.2,66.4,29.93,NNE,16,4.0,12.0,57,0.00,,---,0.00,VWS V14.01,2013-08-02 22:14:00,
2013-08-02 17:19:00,83.1,67.3,29.93,NNW,329,13.0,15.0,59,0.00,,---,0.00,VWS V14.01,2013-08-02 22:19:00,
2013-08-02 17:20:00,82.7,66.9,29.93,NNW,341,8.0,15.0,59,0.00,,---,0.00,VWS V14.01,2013-08-02 22:20:00,
2013-08-02 17:24:00,81.4,66.7,29.93,NNE,19,10.0,12.0,61,0.00,,---,0.00,VWS V14.01,2013-08-02 22:24:00,
2013-08-02 17:29:00,80.9,67.1,29.93,NE,44,5.0,12.0,63,0.00,,---,0.00,VWS V14.01,2013-08-02 22:29:00,
2013-08-02 17:30:00,80.8,67.0,29.93,North,4,15.0,17.0,63,0.00,,---,0.00,VWS V14.01,2013-08-02 22:30:00,
2013-08-02 17:34:00,80.4,67.1,29.93,NE,35,10.0,15.0,64,0.00,,---,0.00,VWS V14.01,2013-08-02 22:34:00,
2013-08-02 17:38:00,79.7,66.9,29.93,NE,43,8.0,15.0,65,0.00,,---,0.00,VWS V14.01,2013-08-02 22:38:00,
2013-08-02 17:40:00,79.6,66.8,29.93,NE,36,11.0,15.0,65,0.00,,---,0.00,VWS V14.01,2013-08-02 22:40:00,
2013-08-02 17:44:00,79.3,66.5,29.93,North,357,11.0,15.0,65,0.00,,---,0.00,VWS V14.01,2013-08-02 22:44:00,
2013-08-02 17:49:00,78.6,66.7,29.93,NNE,25,6.0,15.0,67,0.00,,---,0.00,VWS V14.01,2013-08-02 22:49:00,
2013-08-02 17:50:00,78.5,66.6,29.92,NE,50,6.0,15.0,67,0.00,,---,0.00,VWS V14.01,2013-08-02 22:50:00,
2013-08-02 17:54:00,78.5,67.1,29.92,North,10,10.0,10.0,68,0.00,,---,0.00,VWS V14.01,2013-08-02 22:54:00,
2013-08-02 17:59:00,78.6,67.2,29.91,NNE,21,8.0,10.0,68,0.00,,---,0.00,VWS V14.01,2013-08-02 22:59:00,
2013-08-02 18:00:00,78.6,66.7,29.91,North,11,6.0,10.0,67,0.00,,---,0.00,VWS V14.01,2013-08-02 23:00:00,
2013-08-02 18:04:00,78.6,67.2,29.91,NE,44,4.0,8.0,68,0.00,,---,0.00,VWS V14.01,2013-08-02 23:04:00,
2013-08-02 18:08:00,78.7,66.8,29.91,ESE,122,4.0,9.0,67,0.00,,---,0.00,VWS V14.01,2013-08-02 23:08:00,
2013-08-02 18:10:00,78.8,67.4,29.91,North,11,5.0,10.0,68,0.00,,---,0.00,VWS V14.01,2013-08-02 23:10:00,
2013-08-02 18:14:00,79.0,67.1,29.91,East,83,3.0,6.0,67,0.00,,---,0.00,VWS V14.01,2013-08-02 23:14:00,
2013-08-02 18:19:00,79.3,67.4,29.91,NNE,28,5.0,6.0,67,0.00,,---,0.00,VWS V14.01,2013-08-02 23:19:00,
2013-08-02 18:20:00,79.4,67.5,29.91,NNE,29,4.0,6.0,67,0.00,,---,0.00,VWS V14.01,2013-08-02 23:20:00,
2013-08-02 18:24:00,79.4,66.6,29.91,ESE,122,3.0,7.0,65,0.00,,---,0.00,VWS V14.01,2013-08-02 23:24:00,
2013-08-02 18:28:00,79.5,67.2,29.91,NE,50,3.0,7.0,66,0.00,,---,0.00,VWS V14.01,2013-08-02 23:28:00,
2013-08-02 18:30:00,79.6,67.2,29.91,ESE,121,3.0,7.0,66,0.00,,---,0.00,VWS V14.01,2013-08-02 23:30:00,
2013-08-02 18:34:00,79.6,66.8,29.91,East,82,3.0,6.0,65,0.00,,---,0.00,VWS V14.01,2013-08-02 23:34:00,
2013-08-02 18:39:00,79.5,66.7,29.92,SE,130,4.0,6.0,65,0.00,,---,0.00,VWS V14.01,2013-08-02 23:39:00,
2013-08-02 18:40:00,79.5,66.7,29.92,ENE,70,4.0,6.0,65,0.00,,---,0.00,VWS V14.01,2013-08-02 23:40:00,
2013-08-02 18:44:00,79.4,66.6,29.92,East,84,2.0,6.0,65,0.00,,---,0.00,VWS V14.01,2013-08-02 23:44:00,
2013-08-02 18:49:00,79.8,67.0,29.92,ENE,66,4.0,6.0,65,0.00,,---,0.00,VWS V14.01,2013-08-02 23:49:00,
2013-08-02 18:50:00,79.8,67.0,29.92,ESE,115,3.0,6.0,65,0.00,,---,0.00,VWS V14.01,2013-08-02 23:50:00,
2013-08-02 18:54:00,79.6,66.8,29.92,ENE,72,3.0,5.0,65,0.00,,---,0.00,VWS V14.01,2013-08-02 23:54:00,
2013-08-02 18:59:00,79.4,66.6,29.92,ENE,64,3.0,6.0,65,0.00,,---,0.00,VWS V14.01,2013-08-02 23:59:00,
2013-08-02 19:00:00,79.3,66.5,29.92,NE,51,3.0,6.0,65,0.00,,---,0.00,VWS V14.01,2013-08-03 00:00:00,
2013-08-02 19:04:00,79.3,66.5,29.92,SE,135,4.0,6.0,65,0.00,,---,0.00,VWS V14.01,2013-08-03 00:04:00,
2013-08-02 19:09:00,79.3,66.5,29.92,East,90,3.0,7.0,65,0.00,,---,0.00,VWS V14.01,2013-08-03 00:09:00,
2013-08-02 19:10:00,79.3,66.5,29.92,ENE,60,3.0,7.0,65,0.00,,---,0.00,VWS V14.01,2013-08-03 00:10:00,
2013-08-02 19:14:00,79.2,66.4,29.92,NE,56,3.0,6.0,65,0.00,,---,0.00,VWS V14.01,2013-08-03 00:14:00,
2013-08-02 19:19:00,79.1,66.3,29.92,East,95,2.0,6.0,65,0.00,,---,0.00,VWS V14.01,2013-08-03 00:19:00,
2013-08-02 19:20:00,79.1,66.3,29.92,ESE,116,3.0,6.0,65,0.00,,---,0.00,VWS V14.01,2013-08-03 00:20:00,
2013-08-02 19:24:00,79.0,66.7,29.92,East,96,2.0,5.0,66,0.00,,---,0.00,VWS V14.01,2013-08-03 00:24:00,
2013-08-02 19:29:00,79.0,66.7,29.93,NE,41,4.0,5.0,66,0.00,,---,0.00,VWS V14.01,2013-08-03 00:29:00,
2013-08-02 19:30:00,78.9,66.6,29.92,East,89,1.0,6.0,66,0.00,,---,0.00,VWS V14.01,2013-08-03 00:30:00,
2013-08-02 19:34:00,78.8,66.5,29.93,NNE,30,3.0,4.0,66,0.00,,---,0.00,VWS V14.01,2013-08-03 00:34:00,
2013-08-02 19:39:00,78.9,67.0,29.93,NE,46,3.0,6.0,67,0.00,,---,0.00,VWS V14.01,2013-08-03 00:39:00,
2013-08-02 19:40:00,78.8,66.9,29.93,NE,53,4.0,6.0,67,0.00,,---,0.00,VWS V14.01,2013-08-03 00:40:00,
2013-08-02 19:44:00,78.6,66.7,29.93,NE,46,3.0,7.0,67,0.00,,---,0.00,VWS V14.01,2013-08-03 00:44:00,
2013-08-02 19:49:00,78.6,66.7,29.93,NE,55,2.0,7.0,67,0.00,,---,0.00,VWS V14.01,2013-08-03 00:49:00,
2013-08-02 19:50:00,78.6,66.7,29.93,NE,56,3.0,7.0,67,0.00,,---,0.00,VWS V14.01,2013-08-03 00:50:00,
2013-08-02 19:54:00,78.4,66.1,29.93,ESE,108,3.0,5.0,66,0.00,,---,0.00,VWS V14.01,2013-08-03 00:54:00,
2013-08-02 19:59:00,78.3,66.0,29.93,ENE,78,2.0,6.0,66,0.00,,---,0.00,VWS V14.01,2013-08-03 00:59:00,
2013-08-02 20:00:00,78.2,65.9,29.93,East,97,3.0,6.0,66,0.00,,---,0.00,VWS V14.01,2013-08-03 01:00:00,
2013-08-02 20:04:00,78.3,66.0,29.93,ESE,117,3.0,4.0,66,0.00,,---,0.00,VWS V14.01,2013-08-03 01:04:00,
2013-08-02 20:09:00,78.3,66.0,29.93,East,96,1.0,6.0,66,0.00,,---,0.00,VWS V14.01,2013-08-03 01:09:00,
2013-08-02 20:10:00,78.2,65.9,29.94,NE,46,3.0,6.0,66,0.00,,---,0.00,VWS V14.01,2013-08-03 01:10:00,
2013-08-02 20:14:00,77.9,66.1,29.94,NNW,332,3.0,4.0,67,0.00,,---,0.00,VWS V14.01,2013-08-03 01:14:00,
2013-08-02 20:19:00,77.3,66.3,29.95,NNE,24,3.0,6.0,69,0.00,,---,0.00,VWS V14.01,2013-08-03 01:19:00,
2013-08-02 20:20:00,77.2,66.2,29.95,North,358,7.0,7.0,69,0.00,,---,0.00,VWS V14.01,2013-08-03 01:20:00,
2013-08-02 20:24:00,76.9,66.0,29.95,North,349,5.0,8.0,69,0.00,,---,0.00,VWS V14.01,2013-08-03 01:24:00,
2013-08-02 20:29:00,76.5,66.0,29.95,NE,40,3.0,9.0,70,0.00,,---,0.00,VWS V14.01,2013-08-03 01:29:00,
2013-08-02 20:30:00,76.3,65.8,29.95,NNE,25,3.0,9.0,70,0.00,,---,0.00,VWS V14.01,2013-08-03 01:30:00,
2013-08-02 20:34:00,75.9,65.8,29.95,NE,56,6.0,7.0,71,0.00,,---,0.00,VWS V14.01,2013-08-03 01:34:00,
2013-08-02 20:39:00,75.2,65.2,29.96,NNW,331,3.0,10.0,71,0.00,,---,0.00,VWS V14.01,2013-08-03 01:39:00,
2013-08-02 20:40:00,75.1,65.1,29.96,NNE,14,4.0,10.0,71,0.00,,---,0.00,VWS V14.01,2013-08-03 01:40:00,
2013-08-02 20:44:00,74.7,63.9,29.96,ENE,60,5.0,12.0,69,0.00,,---,0.00,VWS V14.01,2013-08-03 01:44:00,
2013-08-02 20:49:00,74.3,63.9,29.96,North,11,4.0,12.0,70,0.00,,---,0.00,VWS V14.01,2013-08-03 01:49:00,
2013-08-02 20:50:00,74.2,63.8,29.96,NNE,30,3.0,12.0,70,0.00,,---,0.00,VWS V14.01,2013-08-03 01:50:00,
2013-08-02 20:54:00,73.8,64.2,29.97,NE,43,6.0,10.0,72,0.00,,---,0.00,VWS V14.01,2013-08-03 01:54:00,
2013-08-02 20:59:00,73.3,64.5,29.97,NE,44,6.0,11.0,74,0.00,,---,0.00,VWS V14.01,2013-08-03 01:59:00,
2013-08-02 21:00:00,73.2,64.4,29.97,NNE,29,5.0,11.0,74,0.00,,---,0.00,VWS V14.01,2013-08-03 02:00:00,
2013-08-02 21:04:00,72.9,64.5,29.97,North,352,7.0,10.0,75,0.00,,---,0.00,VWS V14.01,2013-08-03 02:04:00,
2013-08-02 21:09:00,72.6,64.2,29.98,North,11,3.0,12.0,75,0.00,,---,0.00,VWS V14.01,2013-08-03 02:09:00,
2013-08-02 21:10:00,72.5,64.1,29.98,NNE,18,6.0,12.0,75,0.00,,---,0.00,VWS V14.01,2013-08-03 02:10:00,
2013-08-02 21:14:00,72.2,63.8,29.98,NE,37,6.0,10.0,75,0.00,,---,0.00,VWS V14.01,2013-08-03 02:14:00,
2013-08-02 21:19:00,71.9,63.9,29.98,NNE,18,6.0,10.0,76,0.00,,---,0.00,VWS V14.01,2013-08-03 02:19:00,
2013-08-02 21:20:00,71.8,63.8,29.98,NNE,23,4.0,10.0,76,0.00,,---,0.00,VWS V14.01,2013-08-03 02:20:00,
2013-08-02 21:24:00,71.6,63.6,29.99,NNE,30,8.0,8.0,76,0.00,,---,0.00,VWS V14.01,2013-08-03 02:24:00,
2013-08-02 21:29:00,71.4,63.1,29.99,NNE,22,8.0,12.0,75,0.00,,---,0.00,VWS V14.01,2013-08-03 02:29:00,
2013-08-02 21:30:00,71.4,63.1,29.99,NE,41,4.0,12.0,75,0.00,,---,0.00,VWS V14.01,2013-08-03 02:30:00,
2013-08-02 21:34:00,71.2,62.9,29.99,NE,46,8.0,10.0,75,0.00,,---,0.00,VWS V14.01,2013-08-03 02:34:00,
2013-08-02 21:39:00,71.0,63.1,29.99,NE,39,5.0,11.0,76,0.00,,---,0.00,VWS V14.01,2013-08-03 02:39:00,
2013-08-02 21:40:00,70.9,63.0,30.00,NNE,14,8.0,11.0,76,0.00,,---,0.00,VWS V14.01,2013-08-03 02:40:00,
2013-08-02 21:44:00,70.6,62.3,30.00,North,4,10.0,13.0,75,0.00,,---,0.00,VWS V14.01,2013-08-03 02:44:00,
2013-08-02 21:49:00,70.2,61.5,30.00,East,100,8.0,14.0,74,0.00,,---,0.00,VWS V14.01,2013-08-03 02:49:00,
2013-08-02 21:50:00,70.1,61.8,30.00,ENE,63,7.0,14.0,75,0.00,,---,0.00,VWS V14.01,2013-08-03 02:50:00,
2013-08-02 21:54:00,69.8,61.5,30.00,North,360,5.0,16.0,75,0.00,,---,0.00,VWS V14.01,2013-08-03 02:54:00,
2013-08-02 21:59:00,69.6,61.7,30.00,NE,46,5.0,16.0,76,0.00,,---,0.00,VWS V14.01,2013-08-03 02:59:00,
2013-08-02 22:00:00,69.5,61.6,30.00,ENE,58,5.0,16.0,76,0.00,,---,0.00,VWS V14.01,2013-08-03 03:00:00,
2013-08-02 22:04:00,69.4,61.5,30.00,NNE,32,4.0,11.0,76,0.00,,---,0.00,VWS V14.01,2013-08-03 03:04:00,
2013-08-02 22:09:00,69.2,61.0,30.01,North,350,6.0,11.0,75,0.00,,---,0.00,VWS V14.01,2013-08-03 03:09:00,
2013-08-02 22:10:00,69.2,61.0,30.01,NE,51,9.0,11.0,75,0.00,,---,0.00,VWS V14.01,2013-08-03 03:10:00,
2013-08-02 22:14:00,69.0,60.8,30.01,NE,39,4.0,10.0,75,0.00,,---,0.00,VWS V14.01,2013-08-03 03:14:00,
2013-08-02 22:19:00,68.8,60.6,30.01,NE,34,8.0,10.0,75,0.00,,---,0.00,VWS V14.01,2013-08-03 03:19:00,
2013-08-02 22:20:00,68.8,60.6,30.01,NNE,33,6.0,10.0,75,0.00,,---,0.00,VWS V14.01,2013-08-03 03:20:00,
2013-08-02 22:24:00,68.7,60.5,30.01,ENE,63,6.0,13.0,75,0.00,,---,0.00,VWS V14.01,2013-08-03 03:24:00,
2013-08-02 22:29:00,68.6,60.4,30.01,East,85,5.0,13.0,75,0.00,,---,0.00,VWS V14.01,2013-08-03 03:29:00,
2013-08-02 22:30:00,68.5,60.3,30.01,North,10,6.0,13.0,75,0.00,,---,0.00,VWS V14.01,2013-08-03 03:30:00,
2013-08-02 22:34:00,68.4,60.2,30.02,NE,56,8.0,10.0,75,0.00,,---,0.00,VWS V14.01,2013-08-03 03:34:00,
2013-08-02 22:40:00,68.4,60.5,30.02,NNE,22,5.0,10.0,76,0.00,,---,0.00,VWS V14.01,2013-08-03 03:40:00,
2013-08-02 22:50:00,68.1,60.3,30.02,NE,45,4.0,11.0,76,0.00,,---,0.00,VWS V14.01,2013-08-03 03:50:00,
2013-08-02 23:00:00,67.8,60.0,30.02,NNE,22,5.0,11.0,76,0.00,,---,0.00,VWS V14.01,2013-08-03 04:00:00,
2013-08-02 23:10:00,67.6,60.1,30.02,NNE,22,5.0,10.0,77,0.00,,---,0.00,VWS V14.01,2013-08-03 04:10:00,
2013-08-02 23:20:00,67.4,60.0,30.02,NE,45,5.0,10.0,77,0.00,,---,0.00,VWS V14.01,2013-08-03 04:20:00,
2013-08-02 23:21:00,67.3,60.0,30.02,NE,44,6.0,10.0,77,0.00,,,0.00,weatherlink.com 1.10,2013-08-03 04:21:00,
2013-08-02 23:30:00,67.3,60.2,30.02,NE,45,5.0,9.0,78,0.00,,---,0.00,VWS V14.01,2013-08-03 04:30:00,
2013-08-02 23:36:00,67.0,60.0,30.02,ENE,76,3.0,9.0,78,0.00,,,0.00,weatherlink.com 1.10,2013-08-03 04:36:00,
2013-08-02 23:40:00,67.1,60.0,30.02,NE,45,5.0,10.0,78,0.00,,---,0.00,VWS V14.01,2013-08-03 04:40:00,
2013-08-02 23:50:00,66.9,60.2,30.03,NE,45,4.0,7.0,79,0.00,,---,0.00,VWS V14.01,2013-08-03 04:50:00,